sensor_id;sensor_type;location;lat;lon;timestamp;temperature;humidity
68746;SHT31;73143;45.456;11.064;2024-03-29T15:32:21;18.60;63.93
68746;SHT31;73143;45.456;11.064;2024-03-29T15:35:01;18.56;64.28
68746;SHT31;73143;45.456;11.064;2024-03-29T15:37:39;18.51;64.46
68746;SHT31;73143;45.456;11.064;2024-03-29T15:40:19;18.47;64.59
68746;SHT31;73143;45.456;11.064;2024-03-29T15:42:56;18.45;64.89
68746;SHT31;73143;45.456;11.064;2024-03-29T15:45:34;18.42;64.86
68746;SHT31;73143;45.456;11.064;2024-03-29T15:48:11;18.36;64.98
68746;SHT31;73143;45.456;11.064;2024-03-29T15:50:48;18.32;65.09
68746;SHT31;73143;45.456;11.064;2024-03-29T15:53:26;18.28;65.19
68746;SHT31;73143;45.456;11.064;2024-03-29T15:56:06;18.26;65.37
68746;SHT31;73143;45.456;11.064;2024-03-29T15:58:43;18.23;65.59
68746;SHT31;73143;45.456;11.064;2024-03-29T16:01:21;18.22;65.83
68746;SHT31;73143;45.456;11.064;2024-03-29T16:03:59;18.21;65.95
68746;SHT31;73143;45.456;11.064;2024-03-29T16:06:35;18.20;66.02
68746;SHT31;73143;45.456;11.064;2024-03-29T16:09:13;18.17;66.34
68746;SHT31;73143;45.456;11.064;2024-03-29T16:11:52;18.12;66.37
68746;SHT31;73143;45.456;11.064;2024-03-29T16:14:30;18.03;66.04
68746;SHT31;73143;45.456;11.064;2024-03-29T16:17:07;17.96;66.29
68746;SHT31;73143;45.456;11.064;2024-03-29T16:19:45;17.89;66.63
68746;SHT31;73143;45.456;11.064;2024-03-29T16:22:24;17.83;66.89
68746;SHT31;73143;45.456;11.064;2024-03-29T16:25:03;17.75;67.11
68746;SHT31;73143;45.456;11.064;2024-03-29T16:27:43;17.68;67.48
68746;SHT31;73143;45.456;11.064;2024-03-29T16:30:20;17.61;67.12
68746;SHT31;73143;45.456;11.064;2024-03-29T16:32:57;17.56;67.09
68746;SHT31;73143;45.456;11.064;2024-03-29T16:35:35;17.49;66.50
68746;SHT31;73143;45.456;11.064;2024-03-29T16:38:11;17.41;66.23
68746;SHT31;73143;45.456;11.064;2024-03-29T16:40:48;17.34;66.33
68746;SHT31;73143;45.456;11.064;2024-03-29T16:43:25;17.31;66.57
68746;SHT31;73143;45.456;11.064;2024-03-29T16:46:04;17.28;66.67
68746;SHT31;73143;45.456;11.064;2024-03-29T16:48:41;17.25;66.80
68746;SHT31;73143;45.456;11.064;2024-03-29T16:51:19;17.22;66.83
68746;SHT31;73143;45.456;11.064;2024-03-29T16:53:55;17.19;66.80
68746;SHT31;73143;45.456;11.064;2024-03-29T16:56:33;17.14;66.88
68746;SHT31;73143;45.456;11.064;2024-03-29T16:59:10;17.09;66.92
68746;SHT31;73143;45.456;11.064;2024-03-29T17:01:47;17.05;66.91
68746;SHT31;73143;45.456;11.064;2024-03-29T17:04:24;17.01;66.72
68746;SHT31;73143;45.456;11.064;2024-03-29T17:07:01;16.96;66.84
68746;SHT31;73143;45.456;11.064;2024-03-29T17:09:41;16.94;66.98
68746;SHT31;73143;45.456;11.064;2024-03-29T17:12:19;16.92;67.08
68746;SHT31;73143;45.456;11.064;2024-03-29T17:14:59;16.89;67.10
68746;SHT31;73143;45.456;11.064;2024-03-29T17:17:37;16.88;67.05
68746;SHT31;73143;45.456;11.064;2024-03-29T17:20:14;16.86;66.87
68746;SHT31;73143;45.456;11.064;2024-03-29T17:22:51;16.85;66.78
68746;SHT31;73143;45.456;11.064;2024-03-29T17:25:28;16.85;66.84
68746;SHT31;73143;45.456;11.064;2024-03-29T17:28:07;16.81;66.92
68746;SHT31;73143;45.456;11.064;2024-03-29T17:30:45;16.79;66.85
68746;SHT31;73143;45.456;11.064;2024-03-29T17:33:24;16.75;66.90
68746;SHT31;73143;45.456;11.064;2024-03-29T17:36:01;16.72;67.03
68746;SHT31;73143;45.456;11.064;2024-03-29T17:38:39;16.69;67.12
68746;SHT31;73143;45.456;11.064;2024-03-29T17:41:17;16.63;67.31
68746;SHT31;73143;45.456;11.064;2024-03-29T17:43:53;16.61;67.24
68746;SHT31;73143;45.456;11.064;2024-03-29T17:46:32;16.59;67.42
68746;SHT31;73143;45.456;11.064;2024-03-29T17:49:10;16.55;67.44
68746;SHT31;73143;45.456;11.064;2024-03-29T17:51:46;16.52;67.63
68746;SHT31;73143;45.456;11.064;2024-03-29T17:54:22;16.48;67.72
68746;SHT31;73143;45.456;11.064;2024-03-29T17:57:01;16.45;67.84
68746;SHT31;73143;45.456;11.064;2024-03-29T17:59:39;16.44;67.87
68746;SHT31;73143;45.456;11.064;2024-03-29T18:02:16;16.42;67.89
68746;SHT31;73143;45.456;11.064;2024-03-29T18:04:55;16.41;67.72
68746;SHT31;73143;45.456;11.064;2024-03-29T18:07:31;16.41;67.80
68746;SHT31;73143;45.456;11.064;2024-03-29T18:10:09;16.40;67.79
68746;SHT31;73143;45.456;11.064;2024-03-29T18:12:49;16.38;67.81
68746;SHT31;73143;45.456;11.064;2024-03-29T18:15:26;16.36;67.93
68746;SHT31;73143;45.456;11.064;2024-03-29T18:18:08;16.35;67.98
68746;SHT31;73143;45.456;11.064;2024-03-29T18:20:45;16.34;67.97
68746;SHT31;73143;45.456;11.064;2024-03-29T18:23:23;16.33;68.06
68746;SHT31;73143;45.456;11.064;2024-03-29T18:26:02;16.33;68.12
68746;SHT31;73143;45.456;11.064;2024-03-29T18:28:38;16.31;68.19
68746;SHT31;73143;45.456;11.064;2024-03-29T18:31:16;16.30;68.23
68746;SHT31;73143;45.456;11.064;2024-03-29T18:33:52;16.31;68.20
68746;SHT31;73143;45.456;11.064;2024-03-29T18:36:31;16.32;68.06
68746;SHT31;73143;45.456;11.064;2024-03-29T18:39:09;16.33;68.04
68746;SHT31;73143;45.456;11.064;2024-03-29T18:41:47;16.34;67.91
68746;SHT31;73143;45.456;11.064;2024-03-29T18:44:25;16.35;67.87
68746;SHT31;73143;45.456;11.064;2024-03-29T18:47:03;16.36;67.85
68746;SHT31;73143;45.456;11.064;2024-03-29T18:49:41;16.36;67.76
68746;SHT31;73143;45.456;11.064;2024-03-29T18:52:19;16.38;67.66
68746;SHT31;73143;45.456;11.064;2024-03-29T18:54:57;16.40;67.65
68746;SHT31;73143;45.456;11.064;2024-03-29T18:57:34;16.40;67.50
68746;SHT31;73143;45.456;11.064;2024-03-29T19:00:12;16.43;67.27
68746;SHT31;73143;45.456;11.064;2024-03-29T19:02:52;16.47;67.11
68746;SHT31;73143;45.456;11.064;2024-03-29T19:05:29;16.51;66.85
68746;SHT31;73143;45.456;11.064;2024-03-29T19:08:10;16.55;66.80
68746;SHT31;73143;45.456;11.064;2024-03-29T19:10:46;16.57;66.90
68746;SHT31;73143;45.456;11.064;2024-03-29T19:13:24;16.57;66.90
68746;SHT31;73143;45.456;11.064;2024-03-29T19:16:01;16.58;66.82
68746;SHT31;73143;45.456;11.064;2024-03-29T19:18:40;16.57;66.79
68746;SHT31;73143;45.456;11.064;2024-03-29T19:21:18;16.57;66.48
68746;SHT31;73143;45.456;11.064;2024-03-29T19:23:55;16.58;66.47
68746;SHT31;73143;45.456;11.064;2024-03-29T19:26:36;16.57;66.73
68746;SHT31;73143;45.456;11.064;2024-03-29T19:29:14;16.55;66.83
68746;SHT31;73143;45.456;11.064;2024-03-29T19:31:50;16.54;66.47
68746;SHT31;73143;45.456;11.064;2024-03-29T19:34:27;16.53;66.57
68746;SHT31;73143;45.456;11.064;2024-03-29T19:37:05;16.52;66.50
68746;SHT31;73143;45.456;11.064;2024-03-29T19:39:43;16.51;66.60
68746;SHT31;73143;45.456;11.064;2024-03-29T19:42:22;16.50;66.60
68746;SHT31;73143;45.456;11.064;2024-03-29T19:44:59;16.48;66.49
68746;SHT31;73143;45.456;11.064;2024-03-29T19:47:38;16.47;66.35
68746;SHT31;73143;45.456;11.064;2024-03-29T19:50:22;16.48;66.28
68746;SHT31;73143;45.456;11.064;2024-03-29T19:52:58;16.49;66.25
68746;SHT31;73143;45.456;11.064;2024-03-29T19:55:40;16.48;65.99
68746;SHT31;73143;45.456;11.064;2024-03-29T19:58:19;16.52;64.87
68746;SHT31;73143;45.456;11.064;2024-03-29T20:00:57;16.58;64.55
68746;SHT31;73143;45.456;11.064;2024-03-29T20:03:36;16.60;64.88
68746;SHT31;73143;45.456;11.064;2024-03-29T20:06:13;16.57;65.34
68746;SHT31;73143;45.456;11.064;2024-03-29T20:08:51;16.54;65.54
68746;SHT31;73143;45.456;11.064;2024-03-29T20:11:29;16.51;65.83
68746;SHT31;73143;45.456;11.064;2024-03-29T20:14:07;16.48;65.94
68746;SHT31;73143;45.456;11.064;2024-03-29T20:16:46;16.47;66.08
68746;SHT31;73143;45.456;11.064;2024-03-29T20:19:24;16.44;66.27
68746;SHT31;73143;45.456;11.064;2024-03-29T20:22:06;16.41;66.37
68746;SHT31;73143;45.456;11.064;2024-03-29T20:24:44;16.38;66.41
68746;SHT31;73143;45.456;11.064;2024-03-29T20:27:21;16.33;66.55
68746;SHT31;73143;45.456;11.064;2024-03-29T20:29:58;16.27;66.57
68746;SHT31;73143;45.456;11.064;2024-03-29T20:32:37;16.21;66.72
68746;SHT31;73143;45.456;11.064;2024-03-29T20:35:16;16.17;66.88
68746;SHT31;73143;45.456;11.064;2024-03-29T20:37:52;16.13;66.93
68746;SHT31;73143;45.456;11.064;2024-03-29T20:40:32;16.10;67.00
68746;SHT31;73143;45.456;11.064;2024-03-29T20:43:12;16.10;67.20
68746;SHT31;73143;45.456;11.064;2024-03-29T20:45:51;16.08;67.47
68746;SHT31;73143;45.456;11.064;2024-03-29T20:48:27;16.05;67.73
68746;SHT31;73143;45.456;11.064;2024-03-29T20:51:06;16.02;67.94
68746;SHT31;73143;45.456;11.064;2024-03-29T20:53:44;15.99;68.16
68746;SHT31;73143;45.456;11.064;2024-03-29T20:56:20;15.96;68.38
68746;SHT31;73143;45.456;11.064;2024-03-29T20:59:00;15.93;68.29
68746;SHT31;73143;45.456;11.064;2024-03-29T21:01:38;15.92;68.07
68746;SHT31;73143;45.456;11.064;2024-03-29T21:04:31;15.89;68.44
68746;SHT31;73143;45.456;11.064;2024-03-29T21:07:24;15.85;68.89
68746;SHT31;73143;45.456;11.064;2024-03-29T21:10:01;15.80;69.14
68746;SHT31;73143;45.456;11.064;2024-03-29T21:12:42;15.78;69.34
68746;SHT31;73143;45.456;11.064;2024-03-29T21:15:23;15.77;69.31
68746;SHT31;73143;45.456;11.064;2024-03-29T21:18:00;15.75;69.34
68746;SHT31;73143;45.456;11.064;2024-03-29T21:20:39;15.74;69.54
68746;SHT31;73143;45.456;11.064;2024-03-29T21:23:16;15.73;69.53
68746;SHT31;73143;45.456;11.064;2024-03-29T21:25:57;15.71;69.67
68746;SHT31;73143;45.456;11.064;2024-03-29T21:28:34;15.70;69.75
68746;SHT31;73143;45.456;11.064;2024-03-29T21:31:11;15.70;69.80
68746;SHT31;73143;45.456;11.064;2024-03-29T21:33:51;15.71;69.72
68746;SHT31;73143;45.456;11.064;2024-03-29T21:36:27;15.69;69.74
68746;SHT31;73143;45.456;11.064;2024-03-29T21:39:05;15.70;69.80
68746;SHT31;73143;45.456;11.064;2024-03-29T21:41:42;15.69;69.80
68746;SHT31;73143;45.456;11.064;2024-03-29T21:44:20;15.69;69.71
68746;SHT31;73143;45.456;11.064;2024-03-29T21:46:59;15.69;69.62
68746;SHT31;73143;45.456;11.064;2024-03-29T21:49:37;15.70;68.96
68746;SHT31;73143;45.456;11.064;2024-03-29T21:52:15;15.73;68.64
68746;SHT31;73143;45.456;11.064;2024-03-29T21:54:53;15.76;68.29
68746;SHT31;73143;45.456;11.064;2024-03-29T21:57:30;15.84;67.71
68746;SHT31;73143;45.456;11.064;2024-03-29T22:00:11;15.93;67.19
68746;SHT31;73143;45.456;11.064;2024-03-29T22:02:52;16.04;66.99
68746;SHT31;73143;45.456;11.064;2024-03-29T22:05:30;16.10;66.66
68746;SHT31;73143;45.456;11.064;2024-03-29T22:08:10;16.16;66.52
68746;SHT31;73143;45.456;11.064;2024-03-29T22:10:46;16.19;66.44
68746;SHT31;73143;45.456;11.064;2024-03-29T22:13:24;16.22;66.11
68746;SHT31;73143;45.456;11.064;2024-03-29T22:16:01;16.27;65.94
68746;SHT31;73143;45.456;11.064;2024-03-29T22:18:39;16.32;65.89
68746;SHT31;73143;45.456;11.064;2024-03-29T22:21:15;16.31;66.04
68746;SHT31;73143;45.456;11.064;2024-03-29T22:23:55;16.28;66.15
68746;SHT31;73143;45.456;11.064;2024-03-29T22:26:32;16.26;66.27
68746;SHT31;73143;45.456;11.064;2024-03-29T22:29:11;16.23;66.26
68746;SHT31;73143;45.456;11.064;2024-03-29T22:31:48;16.23;66.40
68746;SHT31;73143;45.456;11.064;2024-03-29T22:34:26;16.19;66.47
68746;SHT31;73143;45.456;11.064;2024-03-29T22:37:03;16.20;66.51
68746;SHT31;73143;45.456;11.064;2024-03-29T22:39:41;16.22;66.54
68746;SHT31;73143;45.456;11.064;2024-03-29T22:42:18;16.21;66.65
68746;SHT31;73143;45.456;11.064;2024-03-29T22:44:55;16.20;66.89
68746;SHT31;73143;45.456;11.064;2024-03-29T22:47:35;16.17;67.15
68746;SHT31;73143;45.456;11.064;2024-03-29T22:50:12;16.14;67.40
68746;SHT31;73143;45.456;11.064;2024-03-29T22:52:51;16.13;67.73
68746;SHT31;73143;45.456;11.064;2024-03-29T22:55:34;16.11;67.83
68746;SHT31;73143;45.456;11.064;2024-03-29T22:58:11;16.09;68.05
68746;SHT31;73143;45.456;11.064;2024-03-29T23:00:51;16.06;68.30
68746;SHT31;73143;45.456;11.064;2024-03-29T23:03:29;16.04;68.63
68746;SHT31;73143;45.456;11.064;2024-03-29T23:06:08;16.05;68.86
68746;SHT31;73143;45.456;11.064;2024-03-29T23:08:47;16.03;68.98
68746;SHT31;73143;45.456;11.064;2024-03-29T23:11:24;16.01;69.11
68746;SHT31;73143;45.456;11.064;2024-03-29T23:14:01;15.99;69.17
68746;SHT31;73143;45.456;11.064;2024-03-29T23:16:37;15.97;69.41
68746;SHT31;73143;45.456;11.064;2024-03-29T23:19:15;15.96;69.54
68746;SHT31;73143;45.456;11.064;2024-03-29T23:21:52;15.95;69.32
68746;SHT31;73143;45.456;11.064;2024-03-29T23:24:30;15.98;69.30
68746;SHT31;73143;45.456;11.064;2024-03-29T23:27:07;15.98;69.40
68746;SHT31;73143;45.456;11.064;2024-03-29T23:29:45;15.98;69.20
68746;SHT31;73143;45.456;11.064;2024-03-29T23:32:25;15.99;69.13
68746;SHT31;73143;45.456;11.064;2024-03-29T23:35:04;16.00;69.07
68746;SHT31;73143;45.456;11.064;2024-03-29T23:37:42;16.01;69.05
68746;SHT31;73143;45.456;11.064;2024-03-29T23:40:24;16.01;68.84
68746;SHT31;73143;45.456;11.064;2024-03-29T23:43:01;16.03;68.68
68746;SHT31;73143;45.456;11.064;2024-03-29T23:45:38;16.04;68.35
68746;SHT31;73143;45.456;11.064;2024-03-29T23:48:15;16.09;67.88
68746;SHT31;73143;45.456;11.064;2024-03-29T23:50:55;16.13;67.49
68746;SHT31;73143;45.456;11.064;2024-03-29T23:53:33;16.18;66.83
68746;SHT31;73143;45.456;11.064;2024-03-29T23:56:11;16.25;66.24
68746;SHT31;73143;45.456;11.064;2024-03-29T23:58:49;16.30;65.90
